Time;durP1;ratioP1;P1;durP2;ratioP2;P2;SDS_P1;SDS_P2;PMS_P1;PMS_P2;Temp;Humidity;BMP_temperature;BMP_pressure;BME280_temperature;BME280_humidity;BME280_pressure;Samples;Min_cycle;Max_cycle;Signal;HPM_P1;HPM_P2
2024/04/19 00:01:04;;;;;;;4.53;3.97;;;14.50;47.80;;;;;;5404567;26;20237;-55
2024/04/19 00:03:30;;;;;;;5.83;4.93;;;14.20;48.40;;;;;;5397716;26;20234;-57
2024/04/19 00:05:56;;;;;;;5.00;4.40;;;13.90;49.10;;;;;;5401729;26;20544;-58
2024/04/19 00:08:22;;;;;;;5.20;4.70;;;13.50;49.90;;;;;;5398859;26;20791;-58
2024/04/19 00:10:48;;;;;;;6.40;4.50;;;13.30;50.40;;;;;;5398363;26;20234;-59
2024/04/19 00:13:14;;;;;;;4.40;4.00;;;13.20;50.80;;;;;;5400520;26;20478;-58
2024/04/19 00:15:43;;;;;;;5.60;4.67;;;13.10;51.10;;;;;;5404256;26;20521;-55
2024/04/19 00:18:08;;;;;;;5.70;4.23;;;13.10;51.20;;;;;;5402174;26;20285;-58
2024/04/19 00:20:34;;;;;;;5.20;4.77;;;12.80;51.50;;;;;;5400699;26;20479;-59
2024/04/19 00:23:00;;;;;;;5.23;4.30;;;12.80;51.70;;;;;;5398394;26;20237;-59
2024/04/19 00:25:27;;;;;;;4.60;4.20;;;12.70;51.90;;;;;;5395183;26;20233;-57
2024/04/19 00:27:53;;;;;;;4.23;3.83;;;12.50;52.10;;;;;;5405537;26;20732;-53
2024/04/19 00:30:19;;;;;;;5.13;4.63;;;12.50;52.40;;;;;;5400549;26;20531;-55
2024/04/19 00:32:45;;;;;;;4.83;4.37;;;12.40;52.60;;;;;;5401775;26;20555;-56
2024/04/19 00:35:10;;;;;;;4.90;4.37;;;12.40;52.50;;;;;;5407772;26;20334;-59
2024/04/19 00:37:36;;;;;;;4.90;4.40;;;12.20;52.90;;;;;;5409799;26;20233;-59
2024/04/19 00:40:01;;;;;;;4.80;4.30;;;12.10;53.20;;;;;;5410781;26;20284;-59
2024/04/19 00:42:27;;;;;;;6.57;4.63;;;12.10;53.30;;;;;;5411146;26;20854;-56
2024/04/19 00:44:53;;;;;;;5.10;4.60;;;12.10;53.20;;;;;;5398065;26;20307;-56
2024/04/19 00:47:18;;;;;;;8.60;5.07;;;12.20;53.10;;;;;;5406538;26;20288;-59
2024/04/19 00:49:45;;;;;;;5.10;4.60;;;12.20;52.90;;;;;;5405391;26;20276;-59
2024/04/19 00:52:12;;;;;;;5.70;3.80;;;12.00;53.00;;;;;;5399277;26;20234;-57
2024/04/19 00:54:39;;;;;;;4.80;4.40;;;12.00;54.30;;;;;;5407462;26;20585;-59
2024/04/19 00:57:05;;;;;;;4.73;4.30;;;12.10;54.00;;;;;;5402187;26;20582;-57
2024/04/19 00:59:31;;;;;;;4.43;4.03;;;12.40;54.90;;;;;;5395553;26;20483;-57
2024/04/19 01:01:58;;;;;;;5.90;4.50;;;12.70;55.40;;;;;;5397766;26;20476;-58
2024/04/19 01:04:23;;;;;;;4.97;3.90;;;13.00;53.60;;;;;;5405304;26;20475;-60
2024/04/19 01:06:49;;;;;;;7.63;4.77;;;13.30;52.90;;;;;;5401120;26;21063;-56
2024/04/19 01:09:15;;;;;;;5.10;4.70;;;13.50;52.30;;;;;;5400742;26;20344;-58
2024/04/19 01:11:41;;;;;;;4.90;4.50;;;13.60;51.40;;;;;;5404906;26;20237;-57
2024/04/19 01:14:07;;;;;;;4.50;4.10;;;13.70;50.80;;;;;;5398489;26;20530;-60
2024/04/19 01:16:35;;;;;;;5.07;3.87;;;13.90;51.10;;;;;;5397397;26;20292;-57
2024/04/19 01:19:05;;;;;;;3.63;3.00;;;13.90;51.60;;;;;;5404039;26;20578;-56
2024/04/19 01:21:31;;;;;;;5.03;3.37;;;14.00;52.20;;;;;;5392746;26;20539;-58
2024/04/19 01:24:07;;;;;;;5.30;4.90;;;14.10;52.30;;;;;;5397141;26;20884;-58
2024/04/19 01:26:33;;;;;;;5.23;4.73;;;14.10;51.90;;;;;;5397209;26;20616;-58
2024/04/19 01:28:59;;;;;;;5.50;4.30;;;14.10;51.10;;;;;;5398526;26;20487;-57
2024/04/19 01:31:24;;;;;;;4.57;4.20;;;14.20;50.90;;;;;;5407987;26;20234;-57
2024/04/19 01:33:50;;;;;;;4.93;4.43;;;14.20;51.30;;;;;;5409530;26;20879;-57
2024/04/19 01:36:15;;;;;;;6.43;4.40;;;14.30;51.30;;;;;;5398707;26;21798;-56
2024/04/19 01:38:41;;;;;;;4.67;4.27;;;14.50;50.80;;;;;;5402777;26;20242;-58
2024/04/19 01:41:06;;;;;;;5.03;4.60;;;14.60;50.40;;;;;;5402136;26;20340;-60
2024/04/19 01:43:32;;;;;;;8.47;4.40;;;14.70;49.70;;;;;;5407040;26;20237;-60
2024/04/19 01:45:57;;;;;;;4.90;4.50;;;14.70;49.10;;;;;;5404944;26;21140;-58
2024/04/19 01:48:23;;;;;;;6.70;4.67;;;14.70;50.30;;;;;;5400040;26;20250;-59
2024/04/19 01:50:49;;;;;;;4.63;4.17;;;14.70;49.80;;;;;;5400607;26;20736;-58
2024/04/19 01:53:14;;;;;;;5.17;4.50;;;14.70;49.30;;;;;;5399146;26;20361;-56
2024/04/19 01:55:40;;;;;;;5.47;4.97;;;14.70;48.90;;;;;;5397698;26;20366;-57
2024/04/19 01:58:05;;;;;;;5.90;5.30;;;14.70;48.60;;;;;;5401697;26;20268;-58
2024/04/19 02:00:31;;;;;;;5.63;4.17;;;14.70;48.70;;;;;;5397145;26;20805;-59
2024/04/19 02:02:56;;;;;;;4.93;4.50;;;14.70;49.70;;;;;;5400607;26;20300;-59
2024/04/19 02:05:22;;;;;;;5.40;4.93;;;14.80;49.40;;;;;;5403893;26;20350;-56
2024/04/19 02:07:47;;;;;;;5.13;4.63;;;14.80;49.30;;;;;;5404827;26;20253;-59
2024/04/19 02:10:13;;;;;;;8.40;4.40;;;14.90;49.30;;;;;;5406458;26;20294;-58
2024/04/19 02:12:39;;;;;;;3.90;3.60;;;15.00;49.00;;;;;;5403948;26;20261;-58
2024/04/19 02:15:04;;;;;;;4.07;3.67;;;15.00;49.60;;;;;;5404017;26;20237;-57
2024/04/19 02:17:30;;;;;;;4.67;4.27;;;15.00;50.00;;;;;;5403979;26;20272;-58
2024/04/19 02:19:56;;;;;;;5.37;4.93;;;14.80;48.70;;;;;;5399167;26;20249;-57
2024/04/19 02:22:21;;;;;;;6.03;4.33;;;14.80;48.30;;;;;;5403385;26;20554;-57
2024/04/19 02:24:47;;;;;;;4.87;4.40;;;14.90;48.20;;;;;;5399316;26;20659;-58
2024/04/19 02:32:43;;;;;;;5.20;4.70;;;15.00;48.40;;;;;;5401592;26;20598;-60
2024/04/19 02:35:09;;;;;;;4.93;4.53;;;15.10;49.20;;;;;;5408769;26;21113;-57
2024/04/19 02:37:34;;;;;;;5.47;4.03;;;15.20;49.40;;;;;;5402524;26;20951;-56
2024/04/19 02:40:00;;;;;;;4.33;3.93;;;15.20;48.40;;;;;;5401265;26;20230;-58
2024/04/19 02:42:25;;;;;;;4.80;4.40;;;15.20;48.30;;;;;;5405958;26;20276;-58
2024/04/19 02:44:51;;;;;;;4.60;4.20;;;15.30;48.20;;;;;;5400554;26;20234;-58
2024/04/19 02:47:16;;;;;;;3.50;3.20;;;15.30;47.80;;;;;;5394898;26;20242;-58
2024/04/19 02:49:42;;;;;;;4.23;3.83;;;15.30;48.00;;;;;;5399577;26;20841;-60
2024/04/19 02:52:07;;;;;;;3.80;3.50;;;15.40;48.10;;;;;;5393235;26;20364;-60
2024/04/19 02:54:33;;;;;;;3.80;3.40;;;15.40;47.80;;;;;;5394687;26;20225;-60
2024/04/19 02:56:58;;;;;;;3.53;3.23;;;15.40;47.30;;;;;;5409429;26;20275;-59
2024/04/19 02:59:24;;;;;;;4.40;3.73;;;15.30;46.70;;;;;;5400315;26;20237;-60
2024/04/19 03:01:50;;;;;;;3.67;3.30;;;14.90;46.60;;;;;;5398918;26;20309;-59
2024/04/19 03:04:15;;;;;;;4.77;4.37;;;14.80;47.10;;;;;;5399197;26;20284;-58
2024/04/19 03:06:41;;;;;;;4.57;3.80;;;14.90;47.60;;;;;;5399117;26;20355;-60
2024/04/19 03:09:06;;;;;;;6.47;4.13;;;15.00;47.30;;;;;;5401085;26;20796;-58
2024/04/19 03:11:32;;;;;;;5.70;4.20;;;15.10;47.70;;;;;;5404916;26;20241;-58
2024/04/19 03:13:57;;;;;;;5.73;4.27;;;15.10;46.90;;;;;;5405720;26;20241;-60
2024/04/19 03:16:23;;;;;;;5.33;4.17;;;15.10;46.50;;;;;;5404803;26;20772;-57
2024/04/19 03:18:49;;;;;;;4.93;4.53;;;15.10;46.60;;;;;;5398628;26;20235;-59
2024/04/19 03:21:15;;;;;;;4.60;4.20;;;15.20;47.10;;;;;;5402284;26;20284;-58
2024/04/19 03:23:40;;;;;;;4.70;4.30;;;15.20;46.40;;;;;;5402609;26;20479;-57
2024/04/19 03:26:06;;;;;;;4.80;4.40;;;15.20;46.30;;;;;;5402083;26;20354;-57
2024/04/19 03:28:32;;;;;;;4.93;4.53;;;15.20;46.20;;;;;;5402865;26;20278;-59
2024/04/19 03:30:57;;;;;;;5.10;4.60;;;15.20;46.10;;;;;;5404053;26;20287;-58
2024/04/19 03:33:23;;;;;;;4.00;3.60;;;15.30;46.70;;;;;;5399339;26;20246;-60
2024/04/19 03:35:49;;;;;;;5.20;4.70;;;15.30;46.30;;;;;;5400827;26;20246;-58
2024/04/19 03:38:15;;;;;;;4.27;3.87;;;15.30;46.80;;;;;;5388983;26;20371;-59
2024/04/19 03:40:44;;;;;;;5.97;4.20;;;15.30;46.70;;;;;;5394509;26;20276;-57
2024/04/19 03:43:10;;;;;;;6.33;5.20;;;15.30;46.40;;;;;;5403277;26;20515;-57
2024/04/19 03:45:44;;;;;;;6.33;4.47;;;15.30;46.50;;;;;;5395404;26;21011;-58
2024/04/19 03:48:12;;;;;;;6.17;4.40;;;15.40;46.40;;;;;;5394977;26;20513;-57
2024/04/19 03:50:37;;;;;;;4.60;3.80;;;15.30;46.10;;;;;;5395659;26;20528;-57
2024/04/19 03:53:04;;;;;;;4.87;4.37;;;15.20;46.90;;;;;;5397877;26;20808;-57
2024/04/19 03:55:29;;;;;;;4.70;4.10;;;15.30;47.00;;;;;;5402011;26;20292;-57
2024/04/19 03:57:55;;;;;;;4.47;4.07;;;15.30;47.40;;;;;;5405885;26;20527;-55
2024/04/19 04:00:20;;;;;;;4.97;4.47;;;15.30;46.80;;;;;;5396172;26;20832;-56
2024/04/19 04:02:49;;;;;;;7.30;5.00;;;15.20;46.70;;;;;;5395570;26;20286;-58
2024/04/19 04:05:15;;;;;;;5.13;4.67;;;15.00;46.10;;;;;;5401160;26;20655;-59
2024/04/19 04:07:41;;;;;;;6.80;5.37;;;14.90;46.10;;;;;;5398509;26;20876;-58
2024/04/19 04:10:06;;;;;;;7.50;6.10;;;14.70;46.70;;;;;;5399873;26;20463;-57
2024/04/19 04:12:32;;;;;;;6.80;5.20;;;14.60;46.90;;;;;;5400229;26;20280;-59
2024/04/19 04:14:58;;;;;;;5.90;5.40;;;14.60;47.20;;;;;;5396778;26;20287;-59
2024/04/19 04:17:23;;;;;;;6.83;5.90;;;14.50;47.20;;;;;;5396928;26;20257;-58
2024/04/19 04:19:49;;;;;;;7.53;5.63;;;14.40;48.10;;;;;;5397278;26;20296;-59
2024/04/19 04:22:15;;;;;;;5.50;4.90;;;14.40;48.40;;;;;;5395828;26;20686;-58
2024/04/19 04:24:41;;;;;;;5.67;5.13;;;14.10;47.90;;;;;;5394913;26;20245;-58
2024/04/19 04:27:06;;;;;;;7.90;4.90;;;14.00;48.30;;;;;;5401864;26;21066;-57
2024/04/19 04:29:32;;;;;;;6.13;5.53;;;13.70;48.60;;;;;;5401558;26;20247;-55
2024/04/19 04:31:58;;;;;;;7.50;5.20;;;13.50;49.40;;;;;;5401207;26;20390;-57
2024/04/19 04:34:23;;;;;;;7.40;5.57;;;13.20;49.50;;;;;;5378086;26;20269;-56
2024/04/19 04:36:49;;;;;;;7.17;6.00;;;13.10;50.00;;;;;;5409743;26;20226;-56
2024/04/19 04:39:15;;;;;;;5.53;5.03;;;12.80;50.50;;;;;;5403436;26;20238;-57
2024/04/19 04:41:41;;;;;;;9.00;5.20;;;12.70;50.90;;;;;;5406222;26;20276;-58
2024/04/19 04:44:16;;;;;;;6.47;5.77;;;12.60;51.10;;;;;;5398718;26;20286;-57
2024/04/19 04:46:41;;;;;;;7.90;5.70;;;12.40;51.70;;;;;;5405714;26;20490;-58
2024/04/19 04:49:09;;;;;;;6.10;5.50;;;12.30;52.10;;;;;;5410731;26;20580;-58
2024/04/19 04:51:35;;;;;;;6.87;5.77;;;12.10;52.30;;;;;;5403422;26;20834;-55
2024/04/19 04:54:01;;;;;;;8.47;6.63;;;12.00;52.50;;;;;;5404506;26;20477;-56
2024/04/19 04:56:26;;;;;;;7.47;5.60;;;12.00;52.90;;;;;;5406759;26;20234;-57
2024/04/19 04:58:52;;;;;;;5.77;5.23;;;12.00;53.00;;;;;;5408833;26;20592;-56
2024/04/19 05:01:17;;;;;;;6.53;5.87;;;12.00;53.60;;;;;;5409499;26;20229;-59
2024/04/19 05:03:50;;;;;;;7.33;6.47;;;11.90;53.20;;;;;;5407552;26;20339;-57
2024/04/19 05:06:16;;;;;;;7.03;5.13;;;12.00;53.20;;;;;;5401532;26;20242;-57
2024/04/19 05:08:42;;;;;;;7.60;5.73;;;11.80;54.10;;;;;;5404013;26;20470;-56
2024/04/19 05:11:08;;;;;;;7.20;5.27;;;11.80;53.60;;;;;;5398812;26;20562;-57
2024/04/19 05:13:33;;;;;;;8.60;6.10;;;11.80;53.60;;;;;;5398730;26;20241;-58
2024/04/19 05:15:59;;;;;;;7.77;5.90;;;11.80;53.70;;;;;;5397953;26;20394;-54
2024/04/19 05:18:26;;;;;;;8.00;5.63;;;11.70;53.70;;;;;;5399441;26;20289;-58
2024/04/19 05:20:52;;;;;;;8.00;5.80;;;11.70;53.90;;;;;;5394795;26;20314;-57
2024/04/19 05:23:18;;;;;;;6.17;5.57;;;11.60;54.00;;;;;;5402305;26;20475;-56
2024/04/19 05:25:43;;;;;;;8.10;5.83;;;11.60;54.10;;;;;;5399644;26;20233;-57
2024/04/19 05:28:09;;;;;;;6.13;5.53;;;11.60;54.10;;;;;;5401425;26;20704;-56
2024/04/19 05:30:34;;;;;;;8.43;5.77;;;11.50;54.20;;;;;;5398377;26;20729;-57
2024/04/19 05:33:00;;;;;;;5.97;5.40;;;11.60;53.90;;;;;;5400391;26;20241;-55
2024/04/19 05:35:26;;;;;;;7.67;6.87;;;11.50;54.50;;;;;;5399111;26;20291;-57
2024/04/19 05:37:56;;;;;;;6.53;5.83;;;11.40;54.30;;;;;;5398691;26;20249;-57
2024/04/19 05:40:22;;;;;;;7.07;6.07;;;11.40;54.00;;;;;;5391303;26;21404;-57
2024/04/19 05:42:47;;;;;;;6.70;5.97;;;11.40;54.10;;;;;;5402182;26;20492;-56
2024/04/19 05:45:13;;;;;;;7.13;5.93;;;11.40;54.30;;;;;;5401188;26;20585;-57
2024/04/19 05:47:38;;;;;;;7.50;6.03;;;11.40;54.40;;;;;;5400266;26;20289;-57
2024/04/19 05:50:05;;;;;;;7.30;5.63;;;11.30;54.30;;;;;;5399569;26;20273;-58
2024/04/19 05:52:31;;;;;;;8.30;6.03;;;11.10;54.00;;;;;;5395493;26;20237;-55
2024/04/19 05:54:57;;;;;;;10.67;5.90;;;11.20;54.40;;;;;;5405285;26;21314;-57
2024/04/19 05:57:22;;;;;;;6.13;5.33;;;11.20;54.20;;;;;;5406001;26;20519;-55
2024/04/19 05:59:48;;;;;;;5.80;5.20;;;11.20;54.20;;;;;;5405013;26;20275;-56
2024/04/19 06:02:14;;;;;;;8.47;4.90;;;11.00;54.40;;;;;;5406484;26;20249;-57
2024/04/19 06:04:39;;;;;;;5.90;5.10;;;11.00;54.50;;;;;;5400827;26;21000;-58
2024/04/19 06:07:05;;;;;;;7.33;5.07;;;11.00;54.40;;;;;;5399889;26;20235;-57
2024/04/19 06:09:30;;;;;;;9.80;4.90;;;11.20;54.10;;;;;;5400631;26;20276;-57
2024/04/19 06:11:59;;;;;;;5.70;4.77;;;11.20;53.80;;;;;;5397269;26;20595;-56
2024/04/19 06:14:25;;;;;;;5.50;4.67;;;11.30;54.10;;;;;;5399838;26;20234;-57
2024/04/19 06:16:50;;;;;;;5.67;4.27;;;11.40;54.00;;;;;;5399118;26;20517;-58
2024/04/19 06:19:16;;;;;;;5.27;4.40;;;11.30;53.50;;;;;;5403797;26;20237;-56
2024/04/19 06:21:41;;;;;;;5.63;5.00;;;11.10;53.50;;;;;;5399382;26;20245;-56
2024/04/19 06:24:07;;;;;;;5.50;3.80;;;11.10;54.30;;;;;;5399459;26;20264;-57
2024/04/19 06:26:32;;;;;;;6.07;4.40;;;11.10;54.10;;;;;;5404062;26;20237;-57
2024/04/19 06:28:58;;;;;;;5.20;4.30;;;11.10;54.10;;;;;;5397820;26;20238;-57
2024/04/19 06:31:23;;;;;;;4.90;3.90;;;11.10;53.90;;;;;;5401033;26;20725;-58
2024/04/19 06:33:49;;;;;;;7.17;4.87;;;11.20;54.00;;;;;;5395235;26;20324;-57
2024/04/19 06:36:15;;;;;;;4.70;4.23;;;11.30;53.90;;;;;;5396881;26;20295;-58
2024/04/19 06:38:40;;;;;;;6.37;4.83;;;11.50;53.80;;;;;;5396325;26;20835;-58
2024/04/19 06:41:06;;;;;;;4.33;3.93;;;11.40;53.40;;;;;;5402029;26;20299;-57
2024/04/19 06:43:31;;;;;;;4.33;3.93;;;11.60;53.40;;;;;;5399238;26;20889;-58
2024/04/19 06:45:59;;;;;;;4.37;3.97;;;11.40;53.60;;;;;;5400921;26;21410;-57
2024/04/19 06:48:24;;;;;;;4.77;4.07;;;11.30;53.80;;;;;;5404686;26;20292;-57
2024/04/19 06:50:50;;;;;;;5.47;4.10;;;11.50;54.00;;;;;;5389461;26;20477;-57
2024/04/19 06:53:18;;;;;;;4.70;3.87;;;11.40;54.10;;;;;;5400461;26;20344;-58
2024/04/19 06:55:44;;;;;;;5.23;4.73;;;11.30;53.80;;;;;;5400348;26;20238;-57
2024/04/19 06:58:09;;;;;;;4.73;3.97;;;11.20;54.30;;;;;;5402068;26;21063;-58
2024/04/19 07:00:39;;;;;;;4.17;3.70;;;11.20;53.80;;;;;;5402770;26;20587;-59
2024/04/19 07:03:04;;;;;;;5.03;4.40;;;11.30;54.20;;;;;;5399796;26;20243;-57
2024/04/19 07:05:30;;;;;;;6.10;4.70;;;11.50;54.20;;;;;;5395097;26;20518;-58
2024/04/19 07:07:55;;;;;;;5.10;4.10;;;11.30;53.60;;;;;;5391960;26;20241;-58
2024/04/19 07:10:22;;;;;;;4.50;4.10;;;11.30;53.60;;;;;;5396479;26;20245;-57
2024/04/19 07:12:49;;;;;;;4.90;3.30;;;11.10;53.20;;;;;;5410403;26;20752;-57
2024/04/19 07:15:15;;;;;;;4.00;3.60;;;11.20;53.70;;;;;;5402891;26;20594;-57
2024/04/19 07:17:41;;;;;;;5.10;3.93;;;11.40;53.90;;;;;;5402539;26;20484;-54
2024/04/19 07:20:07;;;;;;;3.30;3.00;;;11.40;53.00;;;;;;5408367;26;20737;-56
2024/04/19 07:22:32;;;;;;;6.57;3.90;;;11.20;53.20;;;;;;5409397;26;20630;-58
2024/04/19 07:24:58;;;;;;;5.17;4.17;;;11.10;53.20;;;;;;5395860;26;20607;-59
2024/04/19 07:27:23;;;;;;;4.40;3.73;;;11.50;53.60;;;;;;5403485;26;20281;-58
2024/04/19 07:29:49;;;;;;;4.83;4.20;;;11.60;53.30;;;;;;5394826;26;20253;-58
2024/04/19 07:32:15;;;;;;;3.80;3.40;;;11.60;53.10;;;;;;5397842;26;20285;-57
2024/04/19 07:34:40;;;;;;;3.60;3.20;;;11.20;52.70;;;;;;5396366;26;20288;-56
2024/04/19 07:37:06;;;;;;;5.83;3.60;;;11.10;53.40;;;;;;5403352;26;20543;-57
2024/04/19 07:39:32;;;;;;;3.73;3.40;;;11.20;53.90;;;;;;5404628;26;20275;-54
2024/04/19 07:41:57;;;;;;;4.20;3.50;;;11.20;54.20;;;;;;5398254;26;20279;-57
2024/04/19 07:44:23;;;;;;;5.20;3.77;;;10.90;54.10;;;;;;5399676;26;20237;-55
2024/04/19 07:46:48;;;;;;;8.33;3.70;;;10.70;54.70;;;;;;5399092;26;20245;-55
2024/04/19 07:49:14;;;;;;;5.37;3.50;;;10.80;55.70;;;;;;5405904;26;20737;-56
2024/04/19 07:51:39;;;;;;;3.60;3.30;;;10.80;55.30;;;;;;5400992;26;20241;-57
2024/04/19 07:54:07;;;;;;;3.50;3.20;;;11.10;55.40;;;;;;5404488;26;20271;-56
2024/04/19 07:56:33;;;;;;;4.80;4.10;;;11.10;55.30;;;;;;5397340;26;20654;-57
2024/04/19 07:58:59;;;;;;;3.60;3.17;;;10.90;55.40;;;;;;5394257;26;20483;-57
2024/04/19 08:01:25;;;;;;;3.47;3.17;;;10.50;56.40;;;;;;5399033;26;20592;-55
2024/04/19 08:03:51;;;;;;;4.07;3.40;;;10.40;57.00;;;;;;5389413;26;21165;-54
2024/04/19 08:06:16;;;;;;;3.77;3.47;;;10.20;56.80;;;;;;5394387;26;20249;-56
2024/04/19 08:08:45;;;;;;;5.23;3.50;;;10.10;57.30;;;;;;5402598;26;20749;-57
2024/04/19 08:11:11;;;;;;;3.53;3.17;;;10.20;57.90;;;;;;5407341;26;20749;-55
2024/04/19 08:13:40;;;;;;;3.77;3.37;;;10.30;58.10;;;;;;5405301;26;20463;-56
2024/04/19 08:16:06;;;;;;;4.20;3.80;;;10.60;58.60;;;;;;5402741;26;20233;-55
2024/04/19 08:18:31;;;;;;;4.53;3.40;;;10.70;58.80;;;;;;5399009;26;20456;-57
2024/04/19 08:20:57;;;;;;;4.03;3.63;;;10.50;58.60;;;;;;5392928;26;20516;-55
2024/04/19 08:23:25;;;;;;;3.33;3.03;;;10.30;58.60;;;;;;5409005;26;20245;-55
2024/04/19 08:25:54;;;;;;;4.00;3.57;;;10.30;59.70;;;;;;5402658;26;20238;-56
2024/04/19 08:28:20;;;;;;;4.33;3.70;;;10.00;59.40;;;;;;5408008;26;20467;-56
2024/04/19 08:30:46;;;;;;;3.83;3.33;;;10.10;60.20;;;;;;5391426;26;21037;-57
2024/04/19 08:33:11;;;;;;;5.40;3.90;;;10.10;60.20;;;;;;5401942;26;20530;-57
2024/04/19 08:35:37;;;;;;;5.10;4.33;;;10.30;61.70;;;;;;5402165;26;20460;-56
2024/04/19 08:38:03;;;;;;;3.70;3.40;;;10.00;61.40;;;;;;5397976;26;20241;-56
2024/04/19 08:40:31;;;;;;;3.73;3.27;;;9.90;62.20;;;;;;5404754;26;20225;-57
2024/04/19 08:42:57;;;;;;;3.50;3.10;;;9.80;62.40;;;;;;5397953;26;20237;-55
2024/04/19 08:45:23;;;;;;;4.07;3.63;;;9.70;64.00;;;;;;5394569;26;20519;-58
2024/04/19 08:47:49;;;;;;;5.50;3.40;;;9.80;64.50;;;;;;5404395;26;20296;-57
2024/04/19 08:50:16;;;;;;;3.80;3.23;;;9.90;64.00;;;;;;5405223;26;20486;-56
2024/04/19 08:52:47;;;;;;;5.40;3.60;;;9.90;64.40;;;;;;5409095;26;20517;-58
2024/04/19 08:55:14;;;;;;;3.80;3.50;;;9.60;65.00;;;;;;5404518;26;20467;-58
2024/04/19 08:57:41;;;;;;;3.50;3.20;;;9.50;66.00;;;;;;5409808;26;20475;-57
2024/04/19 09:00:08;;;;;;;3.50;3.20;;;9.60;65.80;;;;;;5400588;26;20471;-57
2024/04/19 09:02:34;;;;;;;3.40;3.03;;;9.60;66.20;;;;;;5406125;26;20515;-58
2024/04/19 09:05:01;;;;;;;3.30;3.00;;;9.80;66.40;;;;;;5397354;26;20864;-57
2024/04/19 09:07:27;;;;;;;4.27;3.10;;;9.50;65.90;;;;;;5404203;26;20246;-58
2024/04/19 09:09:53;;;;;;;3.37;3.07;;;9.60;66.10;;;;;;5395764;26;20460;-56
2024/04/19 09:12:19;;;;;;;3.87;3.47;;;9.40;66.20;;;;;;5408806;26;20516;-58
2024/04/19 09:14:49;;;;;;;3.30;3.00;;;9.30;67.60;;;;;;5403157;26;21029;-57
2024/04/19 09:17:14;;;;;;;3.60;3.30;;;9.20;66.80;;;;;;5406185;26;20249;-58
2024/04/19 09:19:41;;;;;;;2.60;2.40;;;8.90;68.00;;;;;;5409899;26;21200;-59
2024/04/19 09:22:07;;;;;;;3.57;3.27;;;9.10;69.00;;;;;;5399404;26;20340;-58
2024/04/19 09:24:33;;;;;;;2.77;2.57;;;9.20;69.30;;;;;;5403554;26;21339;-58
2024/04/19 09:27:04;;;;;;;4.70;2.70;;;9.20;69.00;;;;;;5399163;26;20730;-57
2024/04/19 09:29:30;;;;;;;2.70;2.50;;;9.30;69.90;;;;;;5402997;26;20241;-58
2024/04/19 09:31:59;;;;;;;3.20;2.50;;;9.20;68.40;;;;;;5404860;26;20526;-58
2024/04/19 09:34:25;;;;;;;3.23;2.83;;;9.30;69.30;;;;;;5398663;26;20468;-57
2024/04/19 09:36:51;;;;;;;3.33;2.93;;;9.30;67.80;;;;;;5389132;26;20537;-56
2024/04/19 09:39:18;;;;;;;3.30;2.80;;;9.30;68.20;;;;;;5389255;26;22337;-57
2024/04/19 09:41:47;;;;;;;3.23;2.93;;;9.30;69.60;;;;;;5399566;26;20471;-58
2024/04/19 09:44:15;;;;;;;3.97;3.57;;;9.50;69.80;;;;;;5403458;26;20471;-57
2024/04/19 09:46:48;;;;;;;5.10;3.80;;;9.50;69.30;;;;;;5405767;26;20849;-59
2024/04/19 09:49:15;;;;;;;3.33;3.03;;;9.50;69.70;;;;;;5401625;26;20487;-59
2024/04/19 09:51:45;;;;;;;4.30;3.73;;;9.70;70.00;;;;;;5407582;26;20471;-59
2024/04/19 09:54:13;;;;;;;3.37;3.07;;;9.40;69.00;;;;;;5408412;26;20918;-58
2024/04/19 09:56:57;;;;;;;5.10;3.43;;;9.50;69.60;;;;;;5405606;26;20475;-59
2024/04/19 09:59:24;;;;;;;5.83;3.30;;;9.10;68.20;;;;;;5396032;26;20912;-61
2024/04/19 10:01:54;;;;;;;3.90;2.87;;;9.30;70.10;;;;;;5397689;26;20481;-60
2024/04/19 10:04:20;;;;;;;5.13;3.97;;;9.30;70.20;;;;;;5399123;26;20531;-59
2024/04/19 10:06:47;;;;;;;4.47;4.07;;;9.30;70.60;;;;;;5406735;26;20487;-59
2024/04/19 10:09:19;;;;;;;4.37;3.60;;;9.30;70.60;;;;;;5409520;26;20531;-60
2024/04/19 10:11:49;;;;;;;3.50;3.20;;;9.60;70.50;;;;;;5406959;26;20570;-59
2024/04/19 10:14:16;;;;;;;4.93;3.60;;;9.70;69.80;;;;;;5411156;26;20527;-58
2024/04/19 10:16:42;;;;;;;5.20;4.00;;;9.70;69.70;;;;;;5405706;26;20578;-60
2024/04/19 10:19:11;;;;;;;4.83;3.53;;;9.80;69.20;;;;;;5409767;26;20483;-59
2024/04/19 10:21:37;;;;;;;4.20;3.80;;;9.70;68.90;;;;;;5409653;26;20229;-59
2024/04/19 10:24:10;;;;;;;4.63;3.60;;;9.30;69.10;;;;;;5405997;26;20536;-59
2024/04/19 10:26:38;;;;;;;5.30;4.37;;;9.20;70.30;;;;;;5408067;26;20463;-59
2024/04/19 10:29:05;;;;;;;6.20;4.43;;;9.50;71.20;;;;;;5404858;26;21300;-59
2024/04/19 10:31:31;;;;;;;4.97;4.10;;;9.50;71.40;;;;;;5406241;26;20873;-58
2024/04/19 10:33:59;;;;;;;5.47;4.27;;;9.20;70.00;;;;;;5398768;26;20483;-58
2024/04/19 10:36:29;;;;;;;5.90;4.60;;;9.10;69.80;;;;;;5395614;26;20467;-59
2024/04/19 10:38:59;;;;;;;5.30;4.80;;;9.20;71.10;;;;;;5403485;26;21123;-59
2024/04/19 10:41:25;;;;;;;4.63;4.23;;;9.30;71.40;;;;;;5402384;26;20468;-58
2024/04/19 10:43:52;;;;;;;6.20;5.07;;;9.60;71.20;;;;;;5408390;26;20517;-58
2024/04/19 10:46:19;;;;;;;6.73;4.50;;;9.50;70.20;;;;;;5401835;26;20249;-58
2024/04/19 10:48:45;;;;;;;5.17;4.67;;;9.40;71.00;;;;;;5405885;26;20546;-59
2024/04/19 10:51:13;;;;;;;4.73;4.23;;;9.50;70.70;;;;;;5400964;26;20472;-58
2024/04/19 10:53:42;;;;;;;4.50;4.10;;;9.20;70.40;;;;;;5410414;26;20471;-58
2024/04/19 10:56:08;;;;;;;5.37;4.87;;;9.20;71.90;;;;;;5398691;26;20517;-59
2024/04/19 10:58:34;;;;;;;4.90;4.40;;;9.20;72.20;;;;;;5397225;26;20465;-57
2024/04/19 11:01:00;;;;;;;5.27;4.53;;;9.20;73.20;;;;;;5399720;26;21216;-59
2024/04/19 11:03:26;;;;;;;5.70;5.10;;;9.50;73.70;;;;;;5398943;26;20280;-58
2024/04/19 11:05:53;;;;;;;5.37;4.60;;;9.70;72.00;;;;;;5397423;26;20471;-59
2024/04/19 11:08:20;;;;;;;5.70;3.53;;;9.80;72.30;;;;;;5400799;26;20522;-60
2024/04/19 11:10:46;;;;;;;4.30;3.90;;;9.40;71.90;;;;;;5408373;26;20471;-59
2024/04/19 11:13:12;;;;;;;5.93;4.27;;;9.60;73.00;;;;;;5409446;26;20479;-58
2024/04/19 11:15:39;;;;;;;5.20;4.70;;;9.70;71.80;;;;;;5409596;26;20924;-59
2024/04/19 11:18:07;;;;;;;5.03;4.23;;;9.80;71.80;;;;;;5403874;26;20814;-59
2024/04/19 11:20:34;;;;;;;5.27;4.17;;;9.80;71.60;;;;;;5400445;26;20591;-59
2024/04/19 11:23:02;;;;;;;4.33;3.93;;;9.70;71.40;;;;;;5409026;26;20813;-59
2024/04/19 11:25:29;;;;;;;5.00;4.47;;;9.80;72.30;;;;;;5405619;26;20475;-59
2024/04/19 11:27:55;;;;;;;3.77;3.47;;;9.40;71.40;;;;;;5404061;26;20596;-59
2024/04/19 11:30:22;;;;;;;4.63;3.70;;;9.20;72.40;;;;;;5408817;26;21045;-59
2024/04/19 11:32:53;;;;;;;3.57;3.27;;;9.40;73.50;;;;;;5396284;26;20525;-60
2024/04/19 11:35:19;;;;;;;3.83;3.20;;;9.10;72.30;;;;;;5407851;26;20560;-60
2024/04/19 11:37:49;;;;;;;3.40;3.10;;;9.20;74.50;;;;;;5402986;26;20862;-60
2024/04/19 11:40:21;;;;;;;3.00;2.80;;;9.20;74.00;;;;;;5403917;26;20479;-60
2024/04/19 11:42:50;;;;;;;3.27;2.97;;;9.40;75.10;;;;;;5403353;26;20459;-58
2024/04/19 11:45:19;;;;;;;2.90;2.60;;;9.50;73.40;;;;;;5403622;26;20471;-58
2024/04/19 11:47:45;;;;;;;3.43;3.13;;;9.00;72.40;;;;;;5397748;26;21086;-58
2024/04/19 11:50:12;;;;;;;4.47;3.90;;;9.00;75.10;;;;;;5396637;26;20540;-59
2024/04/19 11:52:37;;;;;;;2.60;2.40;;;8.80;75.30;;;;;;5401176;26;20468;-59
2024/04/19 11:55:04;;;;;;;3.03;2.73;;;9.00;76.60;;;;;;5405238;26;20463;-59
2024/04/19 11:57:29;;;;;;;2.50;2.33;;;9.30;76.10;;;;;;5396035;26;20305;-59
2024/04/19 11:59:55;;;;;;;2.77;2.50;;;9.30;73.80;;;;;;5397388;26;21013;-59
2024/04/19 12:02:20;;;;;;;3.80;2.87;;;9.30;74.70;;;;;;5404043;26;20241;-59
2024/04/19 12:04:46;;;;;;;3.00;2.80;;;9.30;74.90;;;;;;5396562;26;20353;-60
2024/04/19 12:07:12;;;;;;;3.03;2.70;;;9.20;74.00;;;;;;5401495;26;20268;-60
2024/04/19 12:09:39;;;;;;;2.37;2.17;;;9.20;74.60;;;;;;5401589;26;20273;-58
2024/04/19 12:12:05;;;;;;;3.07;2.77;;;9.10;74.50;;;;;;5401838;26;20904;-59
2024/04/19 12:14:34;;;;;;;2.40;2.13;;;8.90;74.90;;;;;;5399798;26;20480;-60
2024/04/19 12:17:04;;;;;;;2.00;1.80;;;8.90;76.20;;;;;;5395938;26;20479;-60
2024/04/19 12:19:31;;;;;;;2.83;2.03;;;9.20;76.40;;;;;;5399910;26;20467;-59
2024/04/19 12:21:57;;;;;;;2.27;2.00;;;9.30;75.30;;;;;;5402951;26;20463;-58
2024/04/19 12:24:23;;;;;;;2.60;2.17;;;9.30;75.20;;;;;;5395754;26;20594;-59
2024/04/19 12:26:48;;;;;;;2.17;1.97;;;9.20;73.50;;;;;;5396173;26;20902;-60
2024/04/19 12:29:14;;;;;;;2.37;2.17;;;9.20;73.90;;;;;;5390424;26;20238;-60
2024/04/19 12:31:40;;;;;;;2.00;1.80;;;9.20;74.40;;;;;;5389377;26;20281;-59
2024/04/19 12:34:06;;;;;;;2.20;2.00;;;9.10;75.10;;;;;;5397174;26;20239;-58
2024/04/19 12:36:32;;;;;;;3.70;2.50;;;9.20;75.90;;;;;;5400100;26;20288;-59
2024/04/19 12:38:58;;;;;;;2.40;2.20;;;9.30;75.00;;;;;;5393399;26;20460;-60
2024/04/19 12:41:23;;;;;;;6.77;2.00;;;9.10;73.80;;;;;;5402572;26;20330;-59
2024/04/19 12:43:49;;;;;;;2.30;1.70;;;9.00;73.20;;;;;;5395263;26;20272;-57
2024/04/19 12:46:15;;;;;;;3.87;2.37;;;8.80;74.30;;;;;;5389215;26;20242;-59
2024/04/19 12:48:42;;;;;;;2.13;2.00;;;9.00;75.90;;;;;;5400002;26;20532;-59
2024/04/19 12:51:08;;;;;;;1.60;1.50;;;8.90;74.30;;;;;;5392243;26;20476;-59